Gibson, Australia
Current Conditions -  °F | °C
As of 12:00 PM on Sunday 23 Nov 2014 (Local Time) from YESP Reporting Station
Broken Clouds Broken Clouds  
Wind Chill: 66°   Ceiling: 6100
Heat Index: 66°   Visibility: 6mi
Dew Point: 50°   Wind: 24mph
Humidity: 56%   Direction: 220°SW
Pressure: 29.94"   Gusts: NA
Location:  33.64°S, 121.81°E
Report Text: YESP 230400Z AUTO 22021KT 9999 // SCT030 SCT035 BKN061 19/10 Q1014
Loading
Personal Weather Stations






























Interactive Weather Map New forecast layout! Learn more

10-Day Weather Forecast

Advertisements
Track Severe Weather on mobile